createdAt,value
2023-02-16T00:00:19.536Z,2.63
2023-02-16T00:02:49.815Z,2.66
2023-02-16T00:05:25.719Z,2.66
2023-02-16T00:07:55.482Z,2.69
2023-02-16T00:10:25.462Z,2.66
2023-02-16T00:13:11.785Z,2.80
2023-02-16T00:15:40.923Z,2.69
2023-02-16T00:18:19.133Z,2.76
2023-02-16T00:20:48.239Z,2.56
2023-02-16T00:23:17.098Z,2.64
2023-02-16T00:25:45.626Z,2.64
2023-02-16T00:28:19.333Z,2.65
2023-02-16T00:30:48.013Z,2.47
2023-02-16T00:33:20.580Z,2.42
2023-02-16T00:35:49.146Z,2.51
2023-02-16T00:38:17.732Z,2.58
2023-02-16T00:40:46.383Z,2.57
2023-02-16T00:43:26.033Z,2.53
2023-02-16T00:45:55.310Z,2.54
2023-02-16T00:48:25.663Z,2.54
2023-02-16T00:50:55.396Z,2.46
2023-02-16T00:53:23.833Z,2.56
2023-02-16T00:55:52.514Z,2.44
2023-02-16T00:58:26.055Z,2.45
2023-02-16T01:00:57.798Z,2.50
2023-02-16T01:03:30.070Z,2.59
2023-02-16T01:06:12.670Z,2.57
2023-02-16T01:08:59.229Z,2.64
2023-02-16T01:11:28.581Z,2.67
2023-02-16T01:13:58.742Z,2.52
2023-02-16T01:16:36.175Z,2.33
2023-02-16T01:19:06.306Z,2.39
2023-02-16T01:21:34.768Z,2.54
2023-02-16T01:24:03.373Z,2.54
2023-02-16T01:26:33.924Z,2.55
2023-02-16T01:29:02.322Z,2.55
2023-02-16T01:31:30.916Z,2.55
2023-02-16T01:33:59.355Z,2.58
2023-02-16T01:36:34.699Z,2.58
2023-02-16T01:39:03.998Z,2.57
2023-02-16T01:42:05.477Z,2.48
2023-02-16T01:44:40.209Z,2.46
2023-02-16T01:47:28.002Z,2.60
2023-02-16T01:49:56.362Z,2.58
2023-02-16T01:52:35.001Z,2.50
2023-02-16T01:55:11.930Z,2.57
2023-02-16T01:57:46.686Z,2.63
2023-02-16T02:00:23.455Z,2.64
2023-02-16T02:03:16.406Z,2.66
2023-02-16T02:05:44.082Z,2.76
2023-02-16T02:08:23.417Z,2.68
2023-02-16T02:11:04.702Z,2.53
2023-02-16T02:13:43.145Z,2.65
2023-02-16T02:16:13.855Z,2.71
2023-02-16T02:18:44.909Z,2.60
2023-02-16T02:22:05.274Z,2.69
2023-02-16T02:25:25.341Z,2.64
2023-02-16T02:28:02.493Z,2.56
2023-02-16T02:30:44.442Z,2.63
2023-02-16T02:33:32.734Z,2.52
2023-02-16T02:36:19.966Z,2.53
2023-02-16T02:39:05.972Z,2.44
2023-02-16T02:42:01.058Z,2.41
2023-02-16T02:44:32.935Z,2.52
2023-02-16T02:47:01.446Z,2.43
2023-02-16T02:49:29.974Z,2.38
2023-02-16T02:51:59.250Z,2.41
2023-02-16T02:54:49.077Z,2.48
2023-02-16T02:57:39.007Z,2.41
2023-02-16T03:00:31.534Z,2.45
2023-02-16T03:03:04.160Z,2.36
2023-02-16T03:05:35.183Z,2.54
2023-02-16T03:08:14.148Z,2.56
2023-02-16T03:11:05.342Z,2.53
2023-02-16T03:13:40.030Z,2.63
2023-02-16T03:16:14.684Z,2.63
2023-02-16T03:19:02.265Z,2.59
2023-02-16T03:21:49.303Z,2.44
2023-02-16T03:24:44.956Z,2.48
2023-02-16T03:27:33.175Z,2.48
2023-02-16T03:30:04.805Z,2.53
2023-02-16T03:32:35.249Z,2.52
2023-02-16T03:35:03.701Z,2.56
2023-02-16T03:37:32.579Z,2.55
2023-02-16T03:40:19.147Z,2.52
2023-02-16T03:42:51.260Z,2.55
2023-02-16T03:45:20.762Z,2.53
2023-02-16T03:47:50.571Z,2.50
2023-02-16T03:50:19.102Z,2.43
2023-02-16T03:52:47.603Z,2.42
2023-02-16T03:55:16.274Z,2.39
2023-02-16T03:57:45.256Z,2.36
2023-02-16T04:00:14.909Z,2.43
2023-02-16T04:02:45.038Z,2.39
2023-02-16T04:05:14.835Z,2.35
2023-02-16T04:07:43.231Z,2.43
2023-02-16T04:10:11.930Z,2.34
2023-02-16T04:12:39.370Z,2.46
2023-02-16T04:15:10.979Z,2.42
2023-02-16T04:17:39.439Z,2.38
2023-02-16T04:20:11.156Z,2.29
2023-02-16T04:22:40.934Z,2.24
2023-02-16T04:25:09.974Z,2.21
2023-02-16T04:27:39.836Z,2.25
2023-02-16T04:30:14.379Z,2.21
2023-02-16T04:32:42.822Z,2.33
2023-02-16T04:35:12.147Z,2.29
2023-02-16T04:37:42.058Z,2.39
2023-02-16T04:40:13.781Z,2.33
2023-02-16T04:42:42.376Z,2.28
2023-02-16T04:45:11.826Z,2.26
2023-02-16T04:47:40.293Z,2.25
2023-02-16T04:50:10.952Z,2.27
2023-02-16T04:52:41.568Z,2.33
2023-02-16T04:55:12.514Z,2.31
2023-02-16T04:57:41.488Z,2.41
2023-02-16T05:00:12.811Z,2.26
2023-02-16T05:02:41.296Z,2.16
2023-02-16T05:05:10.475Z,2.02
2023-02-16T05:07:38.888Z,1.80
2023-02-16T05:10:10.036Z,1.93
2023-02-16T05:12:56.048Z,1.98
2023-02-16T05:15:24.415Z,2.06
2023-02-16T05:17:52.982Z,1.94
2023-02-16T05:20:41.541Z,1.96
2023-02-16T05:23:10.015Z,1.86
2023-02-16T05:25:39.808Z,1.72
2023-02-16T05:28:08.462Z,1.91
2023-02-16T05:30:37.025Z,1.89
2023-02-16T05:33:05.665Z,1.97
2023-02-16T05:35:35.584Z,2.01
2023-02-16T05:38:04.014Z,1.96
2023-02-16T05:40:32.434Z,1.80
2023-02-16T05:43:02.235Z,1.89
2023-02-16T05:45:30.678Z,1.77
2023-02-16T05:47:59.051Z,1.94
2023-02-16T05:50:27.660Z,1.86
2023-02-16T05:53:00.781Z,1.85
2023-02-16T05:55:29.476Z,1.96
2023-02-16T05:57:57.905Z,2.00
2023-02-16T06:00:28.214Z,2.11
2023-02-16T06:02:56.833Z,2.15
2023-02-16T06:05:25.331Z,2.09
2023-02-16T06:07:53.970Z,2.12
2023-02-16T06:10:22.541Z,2.05
2023-02-16T06:12:51.082Z,2.06
2023-02-16T06:15:19.686Z,2.03
2023-02-16T06:17:49.543Z,2.05
2023-02-16T06:20:18.198Z,2.05
2023-02-16T06:22:46.686Z,2.02
2023-02-16T06:25:15.352Z,2.03
2023-02-16T06:27:43.972Z,2.08
2023-02-16T06:30:13.517Z,2.01
2023-02-16T06:32:42.045Z,1.89
2023-02-16T06:35:12.204Z,1.95
2023-02-16T06:37:40.936Z,1.88
2023-02-16T06:40:11.659Z,1.96
2023-02-16T06:42:40.176Z,1.96
2023-02-16T06:45:10.106Z,1.94
2023-02-16T06:47:39.560Z,1.85
2023-02-16T06:50:13.718Z,1.86
2023-02-16T06:52:42.269Z,1.89
2023-02-16T06:55:11.085Z,1.91
2023-02-16T06:57:39.498Z,2.00
2023-02-16T07:00:09.693Z,1.93
2023-02-16T07:02:38.151Z,2.02
2023-02-16T07:05:07.012Z,1.97
2023-02-16T07:07:36.830Z,1.89
2023-02-16T07:10:05.878Z,2.22
2023-02-16T07:12:34.290Z,1.89
2023-02-16T07:15:02.996Z,1.91
2023-02-16T07:17:31.406Z,1.83
2023-02-16T07:20:00.147Z,1.88
2023-02-16T07:22:29.777Z,1.85
2023-02-16T07:25:00.747Z,1.86
2023-02-16T07:27:29.496Z,1.75
2023-02-16T07:29:57.888Z,1.50
2023-02-16T07:32:27.203Z,1.51
2023-02-16T07:34:56.376Z,1.55
2023-02-16T07:37:24.986Z,1.29
2023-02-16T07:39:54.196Z,1.31
2023-02-16T07:42:24.054Z,1.29
2023-02-16T07:44:53.746Z,1.26
2023-02-16T07:47:23.377Z,1.15
2023-02-16T07:49:51.832Z,1.20
2023-02-16T07:52:20.338Z,1.08
2023-02-16T07:54:48.824Z,1.11
2023-02-16T07:57:17.273Z,1.27
2023-02-16T07:59:47.057Z,1.08
2023-02-16T08:02:17.898Z,1.23
2023-02-16T08:04:46.710Z,1.34
2023-02-16T08:07:15.672Z,1.30
2023-02-16T08:09:44.318Z,1.40
2023-02-16T08:12:14.706Z,1.35
2023-02-16T08:14:43.360Z,1.46
2023-02-16T08:17:14.109Z,1.51
2023-02-16T08:19:42.835Z,1.50
2023-02-16T08:22:12.236Z,1.59
2023-02-16T08:24:40.815Z,1.54
2023-02-16T08:27:09.405Z,1.50
2023-02-16T08:29:38.483Z,1.53
2023-02-16T08:32:08.116Z,1.43
2023-02-16T08:34:38.841Z,1.44
2023-02-16T08:37:08.141Z,1.48
2023-02-16T08:39:37.163Z,1.55
2023-02-16T08:42:06.577Z,1.65
2023-02-16T08:44:35.536Z,1.64
2023-02-16T08:47:04.335Z,1.72
2023-02-16T08:49:33.142Z,1.90
2023-02-16T08:52:04.264Z,1.90
2023-02-16T08:54:33.521Z,1.73
2023-02-16T08:57:03.252Z,1.76
2023-02-16T08:59:32.867Z,1.90
2023-02-16T09:02:02.505Z,1.84
2023-02-16T09:04:31.801Z,1.76
2023-02-16T09:07:10.853Z,1.90
2023-02-16T09:09:41.082Z,1.71
2023-02-16T09:12:10.337Z,1.82
2023-02-16T09:14:39.100Z,1.88
2023-02-16T09:17:07.567Z,1.76
2023-02-16T09:19:36.122Z,1.93
2023-02-16T09:22:06.061Z,1.97
2023-02-16T09:24:34.445Z,2.05
2023-02-16T09:27:04.217Z,2.08
2023-02-16T09:29:32.816Z,2.11
2023-02-16T09:32:01.270Z,2.00
2023-02-16T09:34:29.896Z,2.14
2023-02-16T09:36:58.860Z,2.07
2023-02-16T09:39:28.828Z,2.02
2023-02-16T09:42:10.991Z,2.24
2023-02-16T09:44:55.878Z,2.32
2023-02-16T09:47:31.023Z,2.33
2023-02-16T09:50:03.900Z,2.23
2023-02-16T09:52:40.406Z,1.90
2023-02-16T09:55:16.205Z,2.12
2023-02-16T09:57:58.198Z,2.30
2023-02-16T10:00:44.371Z,2.17
2023-02-16T10:03:30.222Z,2.34
2023-02-16T10:06:12.524Z,2.40
2023-02-16T10:08:46.387Z,2.34
2023-02-16T10:11:41.087Z,2.39
2023-02-16T10:14:30.843Z,2.53
2023-02-16T10:17:13.407Z,2.52
2023-02-16T10:19:49.477Z,2.62
2023-02-16T10:22:28.391Z,2.60
2023-02-16T10:25:03.684Z,2.53
2023-02-16T10:27:40.477Z,2.58
2023-02-16T10:30:18.249Z,2.54
2023-02-16T10:32:58.386Z,2.66
2023-02-16T10:35:33.854Z,2.72
2023-02-16T10:38:12.319Z,2.65
2023-02-16T10:40:53.683Z,2.74
2023-02-16T10:43:40.851Z,2.83
2023-02-16T10:46:13.201Z,2.77
2023-02-16T10:48:41.989Z,2.91
2023-02-16T10:51:13.926Z,3.00
2023-02-16T10:53:48.221Z,3.05
2023-02-16T10:56:47.600Z,3.07
2023-02-16T10:59:20.726Z,3.26
2023-02-16T11:01:53.944Z,3.24
2023-02-16T11:04:35.798Z,3.24
2023-02-16T11:07:08.672Z,3.31
2023-02-16T11:09:38.388Z,3.33
2023-02-16T11:12:25.733Z,3.63
2023-02-16T11:15:00.083Z,3.63
2023-02-16T11:17:29.599Z,3.71
2023-02-16T11:20:05.621Z,3.62
2023-02-16T11:22:38.115Z,3.77
2023-02-16T11:25:27.189Z,3.82
2023-02-16T11:27:58.469Z,3.68
2023-02-16T11:30:36.476Z,3.76
2023-02-16T11:33:20.188Z,3.73
2023-02-16T11:35:49.289Z,3.64
2023-02-16T11:38:31.608Z,3.65
2023-02-16T11:41:02.986Z,3.59
2023-02-16T11:43:36.461Z,3.68
2023-02-16T11:46:16.638Z,3.94
2023-02-16T11:48:46.259Z,4.18
2023-02-16T11:51:19.279Z,4.40
2023-02-16T11:54:01.467Z,4.48
2023-02-16T11:56:32.274Z,4.34
2023-02-16T11:59:19.266Z,4.39
2023-02-16T12:02:31.259Z,4.26
2023-02-16T12:05:27.173Z,4.21
2023-02-16T12:08:19.024Z,4.52
2023-02-16T12:11:11.064Z,4.82
2023-02-16T12:13:49.866Z,5.12
2023-02-16T12:16:29.060Z,5.54
2023-02-16T12:19:19.663Z,5.66
2023-02-16T12:21:51.134Z,5.61
2023-02-16T12:24:37.519Z,5.48
2023-02-16T12:27:13.502Z,5.21
2023-02-16T12:29:54.964Z,5.25
2023-02-16T12:32:50.668Z,5.38
2023-02-16T12:35:50.366Z,5.39
2023-02-16T12:38:34.729Z,5.26
2023-02-16T12:41:21.234Z,5.43
2023-02-16T12:43:54.250Z,5.65
2023-02-16T12:46:29.777Z,5.82
2023-02-16T12:49:03.651Z,5.91
2023-02-16T12:51:38.963Z,5.88
2023-02-16T12:54:17.684Z,6.05
2023-02-16T12:56:54.028Z,5.99
2023-02-16T12:59:31.040Z,5.99
2023-02-16T13:02:02.382Z,6.13
2023-02-16T13:04:40.882Z,5.98
2023-02-16T13:07:19.112Z,5.91
2023-02-16T13:09:59.270Z,5.78
2023-02-16T13:12:33.689Z,5.73
2023-02-16T13:15:14.365Z,5.73
2023-02-16T13:17:49.365Z,5.90
2023-02-16T13:20:21.214Z,5.85
2023-02-16T13:23:39.401Z,5.86
2023-02-16T13:26:57.281Z,5.81
2023-02-16T13:29:56.205Z,5.86
2023-02-16T13:33:04.182Z,5.74
2023-02-16T13:36:11.150Z,5.99
2023-02-16T13:39:23.425Z,5.83
2023-02-16T13:42:29.528Z,5.71
2023-02-16T13:45:01.608Z,5.70
2023-02-16T13:47:33.361Z,5.75
2023-02-16T13:50:05.014Z,5.67
2023-02-16T13:52:37.429Z,5.67
2023-02-16T13:55:23.237Z,5.66
2023-02-16T13:58:08.206Z,5.65
2023-02-16T14:00:40.079Z,5.75
2023-02-16T14:03:15.440Z,5.77
2023-02-16T14:05:46.605Z,5.67
2023-02-16T14:08:25.566Z,5.69
2023-02-16T14:11:10.778Z,5.66
2023-02-16T14:13:51.488Z,5.72
2023-02-16T14:16:34.749Z,5.67
2023-02-16T14:19:07.572Z,5.67
2023-02-16T14:21:42.912Z,5.72
2023-02-16T14:24:30.009Z,5.71
2023-02-16T14:27:02.848Z,5.72
2023-02-16T14:29:36.292Z,5.75
2023-02-16T14:32:23.407Z,5.67
2023-02-16T14:34:57.245Z,5.61
2023-02-16T14:37:37.487Z,5.60
2023-02-16T14:40:22.908Z,5.65
2023-02-16T14:42:57.870Z,5.70
2023-02-16T14:46:26.092Z,5.79
2023-02-16T14:49:30.608Z,5.86
2023-02-16T14:52:46.692Z,5.94
2023-02-16T14:55:33.605Z,6.04
2023-02-16T14:58:17.257Z,6.06
2023-02-16T15:00:51.771Z,6.12
2023-02-16T15:03:23.635Z,6.13
2023-02-16T15:05:58.320Z,5.97
2023-02-16T15:08:35.136Z,5.89
2023-02-16T15:11:15.237Z,6.05
2023-02-16T15:13:45.692Z,6.02
2023-02-16T15:16:15.294Z,6.07
2023-02-16T15:18:47.776Z,5.97
2023-02-16T15:21:22.525Z,6.01
2023-02-16T15:23:54.994Z,5.86
2023-02-16T15:26:26.110Z,5.98
2023-02-16T15:28:59.617Z,5.95
2023-02-16T15:31:35.018Z,5.98
2023-02-16T15:34:05.793Z,5.87
2023-02-16T15:36:36.841Z,5.89
2023-02-16T15:39:08.303Z,5.80
2023-02-16T15:41:40.232Z,5.82
2023-02-16T15:44:31.365Z,5.74
2023-02-16T15:47:09.125Z,5.78
2023-02-16T15:49:39.481Z,5.78
2023-02-16T15:52:13.964Z,5.79
2023-02-16T15:54:43.215Z,5.82
2023-02-16T15:57:21.271Z,5.79
2023-02-16T15:59:53.016Z,5.82
2023-02-16T16:02:26.100Z,5.79
2023-02-16T16:04:58.402Z,5.82
2023-02-16T16:07:30.678Z,5.84
2023-02-16T16:09:59.958Z,5.88
2023-02-16T16:12:29.250Z,5.81
2023-02-16T16:15:01.219Z,5.82
2023-02-16T16:17:33.249Z,5.84
2023-02-16T16:20:27.362Z,5.77
2023-02-16T16:23:01.817Z,5.75
2023-02-16T16:25:39.320Z,5.73
2023-02-16T16:28:14.508Z,5.79
2023-02-16T16:30:45.401Z,5.74
2023-02-16T16:33:16.268Z,5.78
2023-02-16T16:35:47.685Z,5.77
2023-02-16T16:38:26.322Z,5.71
2023-02-16T16:40:57.151Z,5.72
2023-02-16T16:43:30.024Z,5.67
2023-02-16T16:46:19.846Z,5.65
2023-02-16T16:48:51.502Z,5.62
2023-02-16T16:51:35.300Z,5.57
2023-02-16T16:54:05.656Z,5.57
2023-02-16T16:56:39.195Z,5.54
2023-02-16T16:59:07.929Z,5.59
2023-02-16T17:01:37.897Z,5.65
2023-02-16T17:04:06.399Z,5.59
2023-02-16T17:06:35.087Z,5.60
2023-02-16T17:09:04.512Z,5.47
2023-02-16T17:11:37.064Z,5.57
2023-02-16T17:14:11.799Z,5.52
2023-02-16T17:16:44.910Z,5.44
2023-02-16T17:19:14.683Z,5.33
2023-02-16T17:21:43.653Z,5.35
2023-02-16T17:24:12.608Z,5.27
2023-02-16T17:26:41.523Z,5.23
2023-02-16T17:29:10.202Z,5.27
2023-02-16T17:31:38.751Z,5.29
2023-02-16T17:34:08.854Z,5.30
2023-02-16T17:36:39.387Z,5.28
2023-02-16T17:39:08.492Z,5.28
2023-02-16T17:41:36.975Z,5.29
2023-02-16T17:44:05.828Z,5.22
2023-02-16T17:46:34.349Z,5.21
2023-02-16T17:49:03.012Z,5.22
2023-02-16T17:51:36.303Z,5.27
2023-02-16T17:54:06.585Z,5.23
2023-02-16T17:56:35.439Z,5.27
2023-02-16T17:59:04.414Z,5.30
2023-02-16T18:01:34.948Z,5.26
2023-02-16T18:04:04.241Z,5.28
2023-02-16T18:06:33.996Z,5.32
2023-02-16T18:09:02.661Z,5.31
2023-02-16T18:11:31.224Z,5.37
2023-02-16T18:13:59.729Z,5.41
2023-02-16T18:16:29.180Z,5.43
2023-02-16T18:18:58.385Z,5.43
2023-02-16T18:21:26.967Z,5.41
2023-02-16T18:23:56.832Z,5.42
2023-02-16T18:26:25.328Z,5.36
2023-02-16T18:28:53.712Z,5.37
2023-02-16T18:31:22.175Z,5.39
2023-02-16T18:33:51.130Z,5.39
2023-02-16T18:36:19.792Z,5.35
2023-02-16T18:38:48.334Z,5.38
2023-02-16T18:41:18.202Z,5.36
2023-02-16T18:43:46.662Z,5.37
2023-02-16T18:46:15.099Z,5.36
2023-02-16T18:48:43.513Z,5.37
2023-02-16T18:51:13.508Z,5.39
2023-02-16T18:53:42.029Z,5.38
2023-02-16T18:56:12.780Z,5.41
2023-02-16T18:58:43.504Z,5.44
2023-02-16T19:01:16.214Z,5.38
2023-02-16T19:03:44.728Z,5.40
2023-02-16T19:06:13.200Z,5.44
2023-02-16T19:08:41.665Z,5.44
2023-02-16T19:11:10.241Z,5.45
2023-02-16T19:13:38.843Z,5.47
2023-02-16T19:16:09.035Z,5.48
2023-02-16T19:18:37.616Z,5.51
2023-02-16T19:21:08.055Z,5.53
2023-02-16T19:23:36.789Z,5.57
2023-02-16T19:26:11.035Z,5.56
2023-02-16T19:28:40.171Z,5.66
2023-02-16T19:31:17.743Z,5.71
2023-02-16T19:33:46.516Z,5.68
2023-02-16T19:36:16.617Z,5.70
2023-02-16T19:38:45.602Z,5.71
2023-02-16T19:41:17.726Z,5.67
2023-02-16T19:43:46.396Z,5.70
2023-02-16T19:46:17.110Z,5.69
2023-02-16T19:48:46.305Z,5.72
2023-02-16T19:51:15.489Z,5.66
2023-02-16T19:53:45.402Z,5.75
2023-02-16T19:56:17.312Z,5.77
2023-02-16T19:58:46.170Z,5.76
2023-02-16T20:01:22.233Z,5.73
2023-02-16T20:03:52.936Z,5.78
2023-02-16T20:06:23.981Z,5.74
2023-02-16T20:08:54.076Z,5.76
2023-02-16T20:11:25.637Z,5.75
2023-02-16T20:13:54.713Z,5.74
2023-02-16T20:16:26.394Z,5.72
2023-02-16T20:18:56.027Z,5.72
2023-02-16T20:21:28.166Z,5.67
2023-02-16T20:24:00.012Z,5.67
2023-02-16T20:26:34.030Z,5.70
2023-02-16T20:29:03.825Z,5.70
2023-02-16T20:31:39.151Z,5.70
2023-02-16T20:34:08.326Z,5.71
2023-02-16T20:36:37.284Z,5.66
2023-02-16T20:39:08.612Z,5.67
2023-02-16T20:41:37.549Z,5.63
2023-02-16T20:44:06.794Z,5.62
2023-02-16T20:46:37.612Z,5.60
2023-02-16T20:49:07.011Z,5.59
2023-02-16T20:51:36.463Z,5.59
2023-02-16T20:54:05.737Z,5.56
2023-02-16T20:56:34.208Z,5.57
2023-02-16T20:59:02.718Z,5.59
2023-02-16T21:01:37.201Z,5.56
2023-02-16T21:04:09.335Z,5.60
2023-02-16T21:06:38.794Z,5.57
2023-02-16T21:09:08.625Z,5.60
2023-02-16T21:11:38.311Z,5.59
2023-02-16T21:14:06.897Z,5.61
2023-02-16T21:16:36.233Z,5.65
2023-02-16T21:19:17.326Z,5.69
2023-02-16T21:21:51.008Z,5.71
2023-02-16T21:24:19.500Z,5.75
2023-02-16T21:26:48.092Z,5.72
2023-02-16T21:29:16.754Z,5.74
2023-02-16T21:31:45.357Z,5.78
2023-02-16T21:34:15.348Z,5.74
2023-02-16T21:36:44.346Z,5.78
2023-02-16T21:39:13.216Z,5.74
2023-02-16T21:41:40.588Z,5.80
2023-02-16T21:44:12.159Z,5.73
2023-02-16T21:46:42.685Z,5.78
2023-02-16T21:49:15.723Z,5.78
2023-02-16T21:51:46.363Z,5.85
2023-02-16T21:54:16.629Z,5.84
2023-02-16T21:56:50.207Z,5.87
2023-02-16T21:59:22.739Z,5.90
2023-02-16T22:01:52.689Z,5.87
2023-02-16T22:04:24.354Z,5.90
2023-02-16T22:06:54.786Z,5.96
2023-02-16T22:09:24.640Z,6.01
2023-02-16T22:11:53.551Z,6.10
2023-02-16T22:14:22.228Z,6.17
2023-02-16T22:16:51.140Z,6.21
2023-02-16T22:19:21.342Z,6.26
2023-02-16T22:21:51.387Z,6.23
2023-02-16T22:24:21.019Z,6.31
2023-02-16T22:26:51.065Z,6.31
2023-02-16T22:29:19.907Z,6.44
2023-02-16T22:31:50.502Z,6.48
2023-02-16T22:34:22.606Z,6.55
2023-02-16T22:36:51.386Z,6.63
2023-02-16T22:39:20.747Z,6.65
2023-02-16T22:41:51.184Z,6.69
2023-02-16T22:44:19.749Z,6.71
2023-02-16T22:46:48.504Z,6.71
2023-02-16T22:49:17.034Z,6.72
2023-02-16T22:51:46.893Z,6.78
2023-02-16T22:54:16.305Z,6.80
2023-02-16T22:56:45.753Z,6.84
2023-02-16T22:59:14.583Z,6.85
2023-02-16T23:01:43.221Z,6.86
2023-02-16T23:04:15.985Z,6.88
2023-02-16T23:06:46.635Z,6.84
2023-02-16T23:09:17.802Z,6.84
2023-02-16T23:11:46.779Z,6.91
2023-02-16T23:14:17.460Z,6.92
2023-02-16T23:16:47.761Z,6.96
2023-02-16T23:19:20.914Z,7.01
2023-02-16T23:21:51.192Z,7.05
2023-02-16T23:24:23.447Z,7.05
2023-02-16T23:26:52.390Z,7.02
2023-02-16T23:29:20.899Z,7.03
2023-02-16T23:31:49.570Z,7.02
2023-02-16T23:34:19.184Z,7.03
2023-02-16T23:36:48.067Z,7.04
2023-02-16T23:39:19.726Z,7.04
2023-02-16T23:41:48.738Z,7.03
2023-02-16T23:44:17.371Z,7.01
2023-02-16T23:46:45.849Z,7.04
2023-02-16T23:49:14.559Z,7.08
2023-02-16T23:51:42.994Z,7.12
2023-02-16T23:54:11.650Z,7.17
2023-02-16T23:56:42.286Z,7.40
2023-02-16T23:59:10.881Z,7.32
